Time;durP1;ratioP1;P1;durP2;ratioP2;P2;SDS_P1;SDS_P2;PMS_P1;PMS_P2;Temp;Humidity;BMP_temperature;BMP_pressure;BME280_temperature;BME280_humidity;BME280_pressure;Samples;Min_cycle;Max_cycle;Signal;HPM_P1;HPM_P2
2022/03/04 00:01:25;;;;;;;21.42;10.52;;;1.00;99.90;;;;;;5039820;28;20136;-91
2022/03/04 00:03:51;;;;;;;18.25;10.00;;;3.40;99.90;;;;;;5034345;28;20090;-93
2022/03/04 00:06:17;;;;;;;17.17;9.63;;;2.40;99.90;;;;;;5035157;28;20072;-91
2022/03/04 00:08:42;;;;;;;18.48;10.15;;;3.30;99.90;;;;;;5053688;28;20075;-91
2022/03/04 00:11:08;;;;;;;18.00;9.57;;;3.10;99.90;;;;;;5041887;28;20049;-90
2022/03/04 00:13:37;;;;;;;17.75;9.85;;;3.30;99.90;;;;;;5040038;28;20090;-92
2022/03/04 00:16:04;;;;;;;19.92;10.77;;;3.50;99.90;;;;;;5022423;28;20049;-92
2022/03/04 00:18:29;;;;;;;18.38;9.13;;;1.20;99.90;;;;;;5055323;28;20087;-91
2022/03/04 00:20:55;;;;;;;18.70;10.90;;;1.70;99.90;;;;;;5023391;28;20412;-92
2022/03/04 00:23:21;;;;;;;19.58;9.90;;;2.60;99.90;;;;;;5039169;28;20045;-91
2022/03/04 00:25:47;;;;;;;18.55;10.60;;;2.60;99.90;;;;;;5039277;28;20063;-92
2022/03/04 00:28:13;;;;;;;19.17;11.10;;;0.70;99.90;;;;;;5006828;28;20041;-93
2022/03/04 00:30:39;;;;;;;16.67;9.68;;;-1.40;99.90;;;;;;5038020;28;20098;-93
2022/03/04 00:33:05;;;;;;;16.98;9.13;;;3.70;99.90;;;;;;5037695;28;20073;-92
2022/03/04 00:35:32;;;;;;;18.42;9.65;;;0.80;99.90;;;;;;5026609;28;20403;-92
2022/03/04 00:37:58;;;;;;;21.60;10.30;;;2.70;99.90;;;;;;5046010;28;20053;-94
2022/03/04 00:40:23;;;;;;;18.02;8.85;;;3.10;99.90;;;;;;5062140;28;20041;-93
2022/03/04 00:42:49;;;;;;;17.40;9.63;;;2.70;99.90;;;;;;5028383;28;20484;-92
2022/03/04 00:45:15;;;;;;;19.17;10.95;;;0.50;99.90;;;;;;5060620;28;20094;-92
2022/03/04 00:47:41;;;;;;;17.83;9.38;;;2.90;99.90;;;;;;5029099;28;20095;-93
2022/03/04 00:50:10;;;;;;;20.13;10.05;;;2.80;99.90;;;;;;5045878;28;20051;-92
2022/03/04 00:52:36;;;;;;;18.30;10.43;;;3.20;99.90;;;;;;5045684;28;20392;-95
2022/03/04 00:55:03;;;;;;;20.92;9.90;;;2.90;99.90;;;;;;5045078;28;20052;-93
2022/03/04 00:57:29;;;;;;;21.52;9.98;;;0.50;99.90;;;;;;5029380;28;20056;-92
2022/03/04 00:59:54;;;;;;;19.90;11.65;;;0.70;99.90;;;;;;5045815;28;20404;-93
2022/03/04 01:02:20;;;;;;;16.33;9.02;;;3.00;99.90;;;;;;5045529;28;20108;-93
2022/03/04 01:04:46;;;;;;;16.20;10.00;;;2.10;99.90;;;;;;5045271;28;20136;-93
2022/03/04 01:07:12;;;;;;;21.33;10.70;;;1.80;99.90;;;;;;5028209;28;20045;-93
2022/03/04 01:09:37;;;;;;;19.90;9.90;;;2.10;99.90;;;;;;5028602;28;20037;-93
2022/03/04 01:12:04;;;;;;;19.05;10.18;;;0.20;99.90;;;;;;5045794;28;20036;-93
2022/03/04 01:14:31;;;;;;;21.50;11.30;;;-1.30;99.90;;;;;;5028608;28;20052;-92
2022/03/04 01:16:57;;;;;;;20.65;10.98;;;2.90;99.90;;;;;;5044816;28;20496;-89
2022/03/04 01:19:23;;;;;;;26.90;13.85;;;2.50;99.90;;;;;;5043285;28;20080;-93
2022/03/04 01:21:51;;;;;;;21.75;12.57;;;2.10;99.90;;;;;;5028087;28;20060;-91
2022/03/04 01:24:17;;;;;;;22.17;13.05;;;2.20;99.90;;;;;;5029602;28;20472;-92
2022/03/04 01:26:43;;;;;;;23.25;12.95;;;2.00;99.90;;;;;;5062116;28;20055;-93
2022/03/04 01:29:11;;;;;;;23.27;13.10;;;1.80;99.90;;;;;;5028541;28;20033;-92
2022/03/04 01:31:37;;;;;;;26.65;15.13;;;2.00;99.90;;;;;;5045453;28;20045;-91
2022/03/04 01:34:02;;;;;;;31.75;15.70;;;1.50;99.90;;;;;;5028579;28;20059;-92
2022/03/04 01:36:33;;;;;;;30.50;15.63;;;3.00;99.90;;;;;;5045320;28;20109;-92
2022/03/04 01:39:00;;;;;;;29.88;15.88;;;3.30;99.90;;;;;;5045346;28;20049;-93
2022/03/04 01:41:26;;;;;;;25.60;14.70;;;0.10;99.90;;;;;;5045152;28;20052;-94
2022/03/04 01:43:52;;;;;;;27.33;14.40;;;0.20;99.90;;;;;;5044742;28;20052;-92
2022/03/04 01:46:23;;;;;;;29.35;14.68;;;1.70;99.90;;;;;;5010809;28;20045;-92
2022/03/04 01:48:49;;;;;;;24.38;13.48;;;-0.20;99.90;;;;;;5041452;28;20045;-91
2022/03/04 01:51:15;;;;;;;26.48;13.15;;;;;;;;;;5024985;28;20080;-92
2022/03/04 01:53:42;;;;;;;27.25;13.57;;;-0.10;99.90;;;;;;5025624;28;20047;-92
2022/03/04 01:56:07;;;;;;;20.90;11.82;;;-0.30;99.90;;;;;;5040120;28;20041;-93
2022/03/04 01:58:34;;;;;;;25.30;12.27;;;-0.20;99.90;;;;;;5025181;28;20049;-92
2022/03/04 02:01:00;;;;;;;22.13;11.65;;;-0.30;99.90;;;;;;5040903;28;20092;-92
2022/03/04 02:03:25;;;;;;;22.25;12.23;;;-0.10;99.90;;;;;;5057222;28;20044;-93
2022/03/04 02:05:51;;;;;;;20.65;11.85;;;-0.10;99.90;;;;;;5040756;28;20052;-91
2022/03/04 02:08:17;;;;;;;23.02;12.25;;;-0.30;99.90;;;;;;5024792;28;20057;-93
2022/03/04 02:10:43;;;;;;;24.20;12.70;;;-0.30;99.90;;;;;;5040567;28;20072;-93
2022/03/04 02:13:09;;;;;;;24.52;12.68;;;-0.40;99.90;;;;;;5040599;28;20114;-91
2022/03/04 02:15:35;;;;;;;24.80;14.43;;;-0.40;99.90;;;;;;5040021;28;20370;-93
2022/03/04 02:18:10;;;;;;;24.95;12.35;;;-0.50;99.90;;;;;;5023530;28;20143;-93
2022/03/04 02:20:38;;;;;;;21.92;12.13;;;-0.30;99.90;;;;;;5040000;28;20086;-92
2022/03/04 02:23:04;;;;;;;24.63;12.90;;;-0.50;99.90;;;;;;5041162;28;20048;-92
2022/03/04 02:25:30;;;;;;;26.02;13.73;;;-0.20;99.90;;;;;;5024287;28;20055;-92
2022/03/04 02:27:55;;;;;;;26.05;13.18;;;-0.20;99.90;;;;;;5008549;28;20136;-92
2022/03/04 02:30:21;;;;;;;23.13;12.13;;;-0.40;99.90;;;;;;5025087;28;20134;-92
2022/03/04 02:32:47;;;;;;;27.95;13.23;;;-0.40;99.90;;;;;;5023819;28;20049;-91
2022/03/04 02:35:13;;;;;;;22.75;12.55;;;-0.40;99.90;;;;;;5042052;28;20553;-92
2022/03/04 02:37:39;;;;;;;26.88;12.63;;;-0.50;99.90;;;;;;5042073;28;20052;-93
2022/03/04 02:40:08;;;;;;;26.20;12.65;;;-0.40;99.90;;;;;;5024325;28;20150;-92
2022/03/04 02:42:34;;;;;;;24.38;12.50;;;-0.50;99.90;;;;;;5057496;28;20049;-92
2022/03/04 02:45:00;;;;;;;26.63;13.82;;;-0.60;99.90;;;;;;5040430;28;20045;-93
2022/03/04 02:47:25;;;;;;;22.58;13.30;;;-0.60;99.90;;;;;;5007786;28;20052;-94
2022/03/04 02:49:51;;;;;;;23.10;13.48;;;-0.50;99.90;;;;;;5007621;28;20048;-93
2022/03/04 02:52:17;;;;;;;26.75;14.13;;;-0.60;99.90;;;;;;5039565;28;20045;-93
2022/03/04 02:54:43;;;;;;;25.13;14.05;;;-0.40;99.90;;;;;;5039688;28;20048;-92
2022/03/04 02:57:09;;;;;;;28.80;16.67;;;-0.60;99.90;;;;;;5023635;28;20468;-93
2022/03/04 02:59:35;;;;;;;34.40;18.25;;;-0.50;99.90;;;;;;5040553;28;20052;-93
2022/03/04 03:02:00;;;;;;;35.33;21.15;;;-0.60;99.90;;;;;;5023844;28;20072;-93
2022/03/04 03:04:26;;;;;;;35.85;20.02;;;-0.70;99.90;;;;;;5039068;28;20044;-88
2022/03/04 03:06:52;;;;;;;37.45;20.17;;;-0.60;99.90;;;;;;5039697;28;20103;-92
2022/03/04 03:09:18;;;;;;;33.22;17.52;;;-0.50;99.90;;;;;;5023260;28;20044;-92
2022/03/04 03:11:44;;;;;;;29.60;15.95;;;-0.70;99.90;;;;;;5040484;28;20076;-93
2022/03/04 03:14:10;;;;;;;28.77;14.68;;;-0.40;99.90;;;;;;5040637;28;20571;-93
2022/03/04 03:16:35;;;;;;;30.75;17.33;;;-0.70;99.90;;;;;;5023690;28;20057;-92
2022/03/04 03:19:01;;;;;;;32.10;15.82;;;-0.50;99.90;;;;;;5040615;28;20049;-93
2022/03/04 03:21:27;;;;;;;30.20;16.05;;;-0.40;99.90;;;;;;5040009;28;20032;-92
2022/03/04 03:23:53;;;;;;;29.60;15.85;;;-0.30;99.90;;;;;;5040118;28;20041;-93
2022/03/04 03:26:19;;;;;;;29.38;16.25;;;-0.30;99.90;;;;;;5038390;28;20051;-91
2022/03/04 03:28:47;;;;;;;31.00;15.60;;;-0.40;99.90;;;;;;5039699;28;20052;-93
2022/03/04 03:31:13;;;;;;;32.20;16.52;;;-0.40;99.90;;;;;;5040326;28;20060;-93
2022/03/04 03:33:41;;;;;;;30.70;16.83;;;-0.30;99.90;;;;;;5006844;28;20060;-93
2022/03/04 03:36:08;;;;;;;32.03;17.17;;;-0.40;99.90;;;;;;5040463;28;20112;-93
2022/03/04 03:38:34;;;;;;;34.70;17.63;;;-0.40;99.90;;;;;;5023743;28;20044;-90
2022/03/04 03:40:59;;;;;;;33.05;17.98;;;-0.40;99.90;;;;;;5038979;28;20382;-93
2022/03/04 03:43:25;;;;;;;33.05;17.17;;;-0.10;99.90;;;;;;5041031;28;20048;-93
2022/03/04 03:45:51;;;;;;;36.90;18.45;;;-0.40;99.90;;;;;;5039687;28;20052;-93
2022/03/04 03:48:17;;;;;;;35.60;17.13;;;-0.40;99.90;;;;;;5040049;28;20531;-94
2022/03/04 03:50:43;;;;;;;33.05;17.75;;;-0.30;99.90;;;;;;5023710;28;20041;-93
2022/03/04 03:53:09;;;;;;;36.00;17.58;;;-0.30;99.90;;;;;;5040326;28;20041;-93
2022/03/04 03:55:35;;;;;;;31.08;17.58;;;-0.50;99.90;;;;;;5023895;28;20043;-93
2022/03/04 03:58:01;;;;;;;31.00;17.08;;;-0.50;99.90;;;;;;5023683;28;20045;-92
2022/03/04 04:00:27;;;;;;;35.60;17.17;;;-0.30;99.90;;;;;;5038449;28;20107;-93
2022/03/04 04:02:53;;;;;;;31.02;16.70;;;-0.30;99.90;;;;;;5006580;28;20397;-92
2022/03/04 04:05:19;;;;;;;34.20;18.75;;;-0.40;99.90;;;;;;5040056;28;20072;-93
2022/03/04 04:07:45;;;;;;;36.75;18.10;;;-0.20;99.90;;;;;;5023537;28;20045;-93
2022/03/04 04:10:11;;;;;;;36.88;18.23;;;-0.30;99.90;;;;;;5039369;28;20048;-93
2022/03/04 04:12:37;;;;;;;35.20;16.67;;;-0.30;99.90;;;;;;5038851;28;20064;-88
2022/03/04 04:15:03;;;;;;;35.05;17.50;;;-0.30;99.90;;;;;;5039347;28;20056;-93
2022/03/04 04:17:29;;;;;;;35.10;18.40;;;-0.30;99.90;;;;;;5016127;28;20053;-92
2022/03/04 04:19:55;;;;;;;41.22;18.65;;;-0.40;99.90;;;;;;5019462;28;20087;-93
2022/03/04 04:22:21;;;;;;;34.00;17.33;;;-0.50;99.90;;;;;;5051338;28;20041;-92
2022/03/04 04:24:50;;;;;;;35.83;18.00;;;-0.20;99.90;;;;;;5027377;28;20057;-94
2022/03/04 04:27:16;;;;;;;35.95;17.88;;;-0.30;99.90;;;;;;5040756;28;20083;-92
2022/03/04 04:29:42;;;;;;;34.05;18.42;;;-0.30;99.90;;;;;;5023139;28;20025;-93
2022/03/04 04:32:11;;;;;;;37.97;19.38;;;-0.50;99.90;;;;;;5023391;28;20053;-93
2022/03/04 04:34:37;;;;;;;39.10;18.33;;;-0.20;99.90;;;;;;5039790;28;20392;-93
2022/03/04 04:37:05;;;;;;;38.30;19.77;;;-0.40;99.90;;;;;;5023272;28;20064;-93
2022/03/04 04:39:35;;;;;;;35.67;18.17;;;-0.10;99.90;;;;;;5006489;28;20083;-92
2022/03/04 04:42:05;;;;;;;34.33;18.05;;;-0.30;99.90;;;;;;5040265;28;20719;-93
2022/03/04 04:44:31;;;;;;;38.70;18.77;;;-0.20;99.90;;;;;;5023196;28;20057;-93
2022/03/04 04:47:12;;;;;;;;;;;;;;;;;;;;;
2022/03/04 04:49:41;;;;;;;38.70;17.63;;;-0.20;99.90;;;;;;5055750;28;20045;-92
2022/03/04 04:52:10;;;;;;;39.08;19.08;;;0.00;99.90;;;;;;5039410;28;20480;-92
2022/03/04 04:54:42;;;;;;;36.40;18.63;;;-0.20;99.90;;;;;;5039026;28;20041;-92
2022/03/04 04:57:07;;;;;;;36.42;18.20;;;-0.20;99.90;;;;;;5037360;28;20108;-92
2022/03/04 04:59:36;;;;;;;33.83;18.02;;;-0.10;99.90;;;;;;5038873;28;20076;-94
2022/03/04 05:02:02;;;;;;;29.10;16.17;;;-0.20;99.90;;;;;;5023061;28;20131;-93
2022/03/04 05:04:47;;;;;;;32.25;18.58;;;0.10;99.90;;;;;;5039637;28;20137;-94
2022/03/04 05:07:13;;;;;;;38.65;20.58;;;-0.20;99.90;;;;;;5023123;28;20127;-94
2022/03/04 05:09:39;;;;;;;37.78;18.90;;;-0.10;99.90;;;;;;5023470;28;20155;-94
2022/03/04 05:12:05;;;;;;;34.92;19.58;;;-0.20;99.90;;;;;;5024257;28;20088;-94
2022/03/04 05:14:31;;;;;;;41.08;21.63;;;-0.10;99.90;;;;;;5024570;28;20131;-91
2022/03/04 05:17:00;;;;;;;35.75;19.05;;;-0.30;99.90;;;;;;5040251;28;20127;-94
2022/03/04 05:19:26;;;;;;;37.90;19.65;;;-0.20;99.90;;;;;;5039818;28;20045;-95
2022/03/04 05:21:52;;;;;;;38.40;18.90;;;-0.10;99.90;;;;;;5008251;28;20392;-95
2022/03/04 05:24:18;;;;;;;35.00;19.20;;;-0.20;99.90;;;;;;5041630;28;20135;-92
2022/03/04 05:26:43;;;;;;;33.45;19.25;;;-0.20;99.90;;;;;;5043577;28;20118;-93
2022/03/04 05:29:16;;;;;;;37.58;20.10;;;-0.20;99.90;;;;;;5042792;28;20051;-94
2022/03/04 05:31:43;;;;;;;34.13;19.10;;;-0.10;99.90;;;;;;5044099;28;20037;-94
2022/03/04 05:34:10;;;;;;;39.33;20.67;;;-0.10;99.90;;;;;;5043328;28;20553;-93
2022/03/04 05:36:39;;;;;;;34.85;18.27;;;-0.70;99.90;;;;;;5042239;28;20500;-89
2022/03/04 05:39:05;;;;;;;33.95;18.27;;;0.00;99.90;;;;;;5041230;28;20084;-93
2022/03/04 05:41:31;;;;;;;33.47;18.67;;;0.00;99.90;;;;;;5042830;28;20041;-91
2022/03/04 05:44:00;;;;;;;35.05;18.38;;;-0.20;99.90;;;;;;5043109;28;20056;-93
2022/03/04 05:46:25;;;;;;;38.50;19.73;;;-0.10;99.90;;;;;;5059822;28;20037;-91
2022/03/04 05:49:06;;;;;;;35.35;19.67;;;-0.10;99.90;;;;;;5042426;28;20064;-93
2022/03/04 05:51:38;;;;;;;32.58;17.92;;;-0.10;99.90;;;;;;5043162;28;20048;-94
2022/03/04 05:54:04;;;;;;;37.45;19.35;;;-0.10;99.90;;;;;;5042989;28;20049;-91
2022/03/04 05:56:30;;;;;;;34.60;18.92;;;-0.10;99.90;;;;;;5042182;28;20041;-94
2022/03/04 05:58:58;;;;;;;34.05;18.23;;;0.00;99.90;;;;;;5043064;28;20037;-95
2022/03/04 06:01:34;;;;;;;34.78;18.23;;;-0.10;99.90;;;;;;5043165;28;20497;-94
2022/03/04 06:03:59;;;;;;;37.30;19.85;;;-0.10;99.90;;;;;;5026238;28;20060;-93
2022/03/04 06:06:44;;;;;;;35.83;18.77;;;-0.10;99.90;;;;;;5026166;28;20106;-95
2022/03/04 06:09:10;;;;;;;33.15;19.98;;;0.00;99.90;;;;;;5059612;28;20092;-92
2022/03/04 06:11:36;;;;;;;35.03;19.40;;;-0.10;99.90;;;;;;5041425;28;20488;-92
2022/03/04 06:14:05;;;;;;;40.22;19.98;;;-0.20;99.90;;;;;;5042082;28;20055;-92
2022/03/04 06:16:38;;;;;;;36.35;19.80;;;0.00;99.90;;;;;;5041670;28;20057;-93
2022/03/04 06:19:08;;;;;;;33.20;18.27;;;-0.10;99.90;;;;;;5026064;28;20101;-94
2022/03/04 06:21:45;;;;;;;34.67;17.83;;;0.10;99.90;;;;;;5026134;28;20065;-93
2022/03/04 06:24:11;;;;;;;34.97;19.63;;;0.10;99.90;;;;;;5024807;28;20029;-93
2022/03/04 06:26:40;;;;;;;33.35;18.98;;;-0.30;99.90;;;;;;5042273;28;20049;-94
2022/03/04 06:29:05;;;;;;;30.77;17.50;;;0.00;99.90;;;;;;5041546;28;20044;-91
2022/03/04 06:31:37;;;;;;;34.25;18.73;;;-0.10;99.90;;;;;;5008702;28;20235;-94
2022/03/04 06:34:02;;;;;;;35.15;19.48;;;-0.20;99.90;;;;;;5039692;28;20096;-94
2022/03/04 06:36:55;;;;;;;34.33;18.55;;;-0.30;99.90;;;;;;5041962;28;20056;-94
2022/03/04 06:39:21;;;;;;;36.42;19.33;;;-0.20;99.90;;;;;;5040346;28;20202;-94
2022/03/04 06:41:50;;;;;;;33.35;19.17;;;0.00;99.90;;;;;;5025840;28;20069;-93
2022/03/04 06:44:34;;;;;;;31.17;18.52;;;0.10;99.90;;;;;;5027036;28;20053;-94
2022/03/04 06:47:08;;;;;;;37.97;20.67;;;-0.10;99.90;;;;;;5042530;28;20053;-92
2022/03/04 06:49:52;;;;;;;35.00;19.50;;;0.00;99.90;;;;;;5039654;28;20542;-93
2022/03/04 06:52:21;;;;;;;29.38;17.45;;;0.00;99.90;;;;;;5041644;28;20041;-93
2022/03/04 06:54:47;;;;;;;31.27;17.90;;;0.00;99.90;;;;;;5024920;28;20072;-91
2022/03/04 06:57:14;;;;;;;32.20;17.75;;;-0.10;99.90;;;;;;5041097;28;20041;-91
2022/03/04 06:59:39;;;;;;;31.90;17.90;;;-0.30;99.90;;;;;;5039925;28;20584;-93
2022/03/04 07:04:53;;;;;;;33.55;19.05;;;-0.10;99.90;;;;;;5030388;28;20114;-93
2022/03/04 07:07:19;;;;;;;30.08;18.60;;;0.10;99.90;;;;;;5040302;28;20045;-93
2022/03/04 07:09:45;;;;;;;28.02;17.65;;;0.00;99.90;;;;;;5025598;28;20060;-95
2022/03/04 07:12:11;;;;;;;36.72;18.75;;;-0.10;99.90;;;;;;5041916;28;20444;-93
2022/03/04 07:14:36;;;;;;;32.22;17.48;;;-0.10;99.90;;;;;;5037252;28;20061;-94
2022/03/04 07:17:06;;;;;;;30.45;17.80;;;0.20;99.90;;;;;;5041059;28;20041;-93
2022/03/04 07:19:34;;;;;;;34.45;19.83;;;0.10;99.90;;;;;;5024317;28;20080;-93
2022/03/04 07:22:03;;;;;;;31.50;17.85;;;-0.30;99.90;;;;;;5057416;28;20048;-93
2022/03/04 07:24:29;;;;;;;37.00;19.08;;;0.10;99.90;;;;;;5024877;28;20071;-94
2022/03/04 07:27:14;;;;;;;32.95;19.45;;;0.00;99.90;;;;;;5041024;28;20052;-94
2022/03/04 07:29:49;;;;;;;31.08;17.75;;;-0.20;99.90;;;;;;5023832;28;20067;-93
2022/03/04 07:32:15;;;;;;;36.05;18.50;;;-0.10;99.90;;;;;;5039164;28;20048;-92
2022/03/04 07:34:41;;;;;;;34.35;17.48;;;-0.20;99.90;;;;;;5023256;28;20064;-91
2022/03/04 07:37:10;;;;;;;33.50;18.35;;;-0.10;99.90;;;;;;5023063;28;20053;-92
2022/03/04 07:39:36;;;;;;;34.83;19.33;;;0.10;99.90;;;;;;5041243;28;20040;-91
2022/03/04 07:42:02;;;;;;;39.67;21.27;;;0.20;99.90;;;;;;5040780;28;20045;-94
2022/03/04 07:44:28;;;;;;;31.20;18.60;;;-0.10;99.90;;;;;;5024584;28;20095;-93
2022/03/04 07:47:22;;;;;;;31.45;17.90;;;0.20;99.90;;;;;;5011817;28;20084;-94
2022/03/04 07:49:50;;;;;;;27.80;16.95;;;0.10;99.90;;;;;;5041375;28;20128;-91
2022/03/04 07:52:17;;;;;;;29.95;17.63;;;0.20;99.90;;;;;;5048120;23;20052;-70
2022/03/04 07:54:43;;;;;;;29.77;16.75;;;0.30;99.90;;;;;;5034628;28;20044;-71
2022/03/04 07:57:09;;;;;;;34.78;20.67;;;0.10;99.90;;;;;;5050881;28;20051;-70
2022/03/04 07:59:35;;;;;;;30.10;17.98;;;0.40;99.90;;;;;;5034427;28;20519;-70
2022/03/04 08:02:01;;;;;;;30.55;17.85;;;0.60;99.90;;;;;;5033991;28;20072;-71
2022/03/04 08:04:27;;;;;;;32.00;18.02;;;0.40;99.90;;;;;;5034546;28;20497;-71
2022/03/04 08:06:53;;;;;;;30.88;16.98;;;0.70;99.90;;;;;;5050525;28;20102;-71
2022/03/04 08:09:19;;;;;;;29.77;17.63;;;0.70;99.90;;;;;;5050664;28;20044;-70
2022/03/04 08:11:46;;;;;;;31.52;18.20;;;0.30;99.90;;;;;;5033761;28;20049;-71
2022/03/04 08:14:12;;;;;;;29.10;17.25;;;0.40;99.90;;;;;;5050403;28;20178;-71
2022/03/04 08:16:38;;;;;;;31.05;19.50;;;0.60;99.90;;;;;;5050315;28;20056;-72
2022/03/04 08:19:05;;;;;;;32.17;17.80;;;0.90;99.90;;;;;;5033845;28;20044;-70
2022/03/04 08:21:31;;;;;;;29.63;16.85;;;;;;;;;;5017373;28;20083;-71
2022/03/04 08:23:57;;;;;;;32.03;18.15;;;;;;;;;;5033943;28;20293;-70
2022/03/04 08:26:23;;;;;;;29.00;17.65;;;;;;;;;;5034012;28;20041;-71
2022/03/04 08:28:49;;;;;;;29.23;17.85;;;;;;;;;;5050452;28;20048;-72
2022/03/04 08:31:16;;;;;;;31.70;18.17;;;;;;;;;;5050431;28;20502;-71
2022/03/04 08:33:44;;;;;;;30.63;18.27;;;0.80;99.90;;;;;;5050147;28;20099;-71
2022/03/04 08:36:11;;;;;;;28.20;15.35;;;0.90;99.90;;;;;;5050632;28;20029;-71
2022/03/04 08:38:37;;;;;;;30.58;17.73;;;1.20;99.90;;;;;;5050063;28;20033;-70
2022/03/04 08:41:03;;;;;;;28.92;16.98;;;0.90;99.90;;;;;;5050410;28;20049;-71
2022/03/04 08:43:31;;;;;;;29.65;17.15;;;;;;;;;;5033467;28;20103;-70
2022/03/04 08:45:57;;;;;;;33.20;18.80;;;1.00;99.90;;;;;;5050015;28;20044;-72
2022/03/04 08:48:23;;;;;;;32.92;17.95;;;1.10;99.90;;;;;;5017542;28;20037;-71
2022/03/04 08:50:49;;;;;;;32.65;19.35;;;1.30;99.90;;;;;;5050089;28;20037;-72
2022/03/04 08:53:15;;;;;;;32.30;19.33;;;1.50;99.90;;;;;;5050498;28;20052;-72
2022/03/04 08:55:44;;;;;;;32.10;17.98;;;1.30;99.90;;;;;;5034135;28;20476;-72
2022/03/04 08:58:10;;;;;;;34.53;19.77;;;1.40;99.90;;;;;;5038317;28;20033;-72
2022/03/04 09:00:36;;;;;;;34.25;19.48;;;1.70;99.90;;;;;;5054239;28;20403;-72
2022/03/04 09:03:02;;;;;;;30.27;18.08;;;1.60;99.90;;;;;;5037650;28;20040;-72
2022/03/04 09:05:28;;;;;;;32.65;19.08;;;1.90;99.90;;;;;;5054214;28;20041;-71
2022/03/04 09:07:54;;;;;;;32.58;18.75;;;2.00;99.90;;;;;;5053972;28;20044;-73
2022/03/04 09:10:20;;;;;;;34.40;18.42;;;2.80;99.90;;;;;;5054005;28;20044;-72
2022/03/04 09:12:46;;;;;;;26.50;16.73;;;2.30;99.90;;;;;;5021060;28;20037;-72
2022/03/04 09:15:12;;;;;;;32.22;19.30;;;2.70;99.90;;;;;;5037524;28;20037;-71
2022/03/04 09:17:40;;;;;;;34.45;19.52;;;2.90;99.90;;;;;;5053966;28;20044;-72
2022/03/04 09:20:06;;;;;;;32.13;19.08;;;2.30;99.90;;;;;;5037487;28;20045;-70
2022/03/04 09:22:32;;;;;;;32.63;20.02;;;2.10;99.90;;;;;;5037172;28;20045;-70
2022/03/04 09:24:58;;;;;;;33.22;19.58;;;1.90;99.90;;;;;;5053710;28;20049;-72
2022/03/04 09:27:24;;;;;;;30.95;19.27;;;2.20;99.90;;;;;;5021081;28;20503;-72
2022/03/04 09:29:50;;;;;;;31.50;19.77;;;2.00;99.90;;;;;;5037013;28;20484;-72
2022/03/04 09:32:16;;;;;;;35.75;18.70;;;3.00;99.90;;;;;;5053429;28;20048;-71
2022/03/04 09:34:41;;;;;;;31.00;18.60;;;2.40;99.90;;;;;;5053608;28;20079;-72
2022/03/04 09:37:07;;;;;;;32.70;19.10;;;2.60;99.90;;;;;;5053685;28;20052;-72
2022/03/04 09:39:33;;;;;;;32.13;18.90;;;2.40;99.90;;;;;;5020535;28;20381;-72
2022/03/04 09:41:59;;;;;;;29.10;18.65;;;3.40;99.90;;;;;;5053374;28;20178;-72
2022/03/04 09:44:26;;;;;;;32.40;19.90;;;;;;;;;;5037022;28;20053;-72
2022/03/04 09:46:53;;;;;;;34.42;17.67;;;;;;;;;;5053139;28;20041;-72
2022/03/04 09:49:19;;;;;;;31.25;18.00;;;;;;;;;;5037014;28;20415;-72
2022/03/04 09:51:45;;;;;;;32.55;19.05;;;2.70;99.90;;;;;;5053068;28;20197;-73
2022/03/04 09:54:12;;;;;;;34.83;20.02;;;2.30;99.90;;;;;;5036971;28;20041;-72
2022/03/04 09:56:38;;;;;;;33.15;20.42;;;2.20;99.90;;;;;;5053040;28;20041;-72
2022/03/04 09:59:03;;;;;;;34.13;19.90;;;2.30;99.90;;;;;;5053085;28;20127;-72
2022/03/04 10:01:29;;;;;;;36.30;20.45;;;2.20;99.90;;;;;;5019716;28;20152;-72
2022/03/04 10:03:55;;;;;;;34.47;20.10;;;2.80;99.90;;;;;;5053087;28;20060;-72
2022/03/04 10:06:22;;;;;;;32.83;20.25;;;2.80;99.90;;;;;;5019964;28;20047;-72
2022/03/04 10:08:53;;;;;;;31.95;18.63;;;3.00;99.90;;;;;;5051804;28;20440;-72
2022/03/04 10:11:30;;;;;;;33.90;18.75;;;3.50;99.90;;;;;;5052902;28;20040;-72
2022/03/04 10:13:59;;;;;;;30.48;18.60;;;3.10;99.90;;;;;;5052796;28;20041;-72
2022/03/04 10:16:31;;;;;;;29.13;17.33;;;3.40;99.90;;;;;;5052681;28;20033;-72
2022/03/04 10:19:17;;;;;;;31.67;18.50;;;3.30;99.90;;;;;;5052625;28;20037;-71
2022/03/04 10:21:55;;;;;;;29.90;17.42;;;3.50;99.90;;;;;;5052775;28;20036;-71
2022/03/04 10:24:33;;;;;;;31.33;18.27;;;3.90;99.90;;;;;;5036727;28;20067;-72
2022/03/04 10:27:07;;;;;;;30.30;18.10;;;3.90;99.90;;;;;;5052468;28;20063;-72
2022/03/04 10:29:37;;;;;;;27.52;17.02;;;4.00;99.90;;;;;;5052371;28;20412;-73
2022/03/04 10:32:06;;;;;;;29.73;18.42;;;;;;;;;;5052429;28;20429;-72
2022/03/04 10:34:52;;;;;;;29.85;18.42;;;4.10;99.90;;;;;;5052600;28;20430;-72
2022/03/04 10:37:51;;;;;;;27.10;16.73;;;4.20;99.90;;;;;;5052331;28;20052;-71
2022/03/04 10:40:18;;;;;;;28.88;16.52;;;4.10;99.90;;;;;;5030629;28;20049;-71
2022/03/04 10:42:47;;;;;;;28.08;17.30;;;4.20;99.90;;;;;;5052513;28;20496;-71
2022/03/04 10:45:17;;;;;;;28.52;17.60;;;4.40;99.90;;;;;;5052333;28;20045;-71
2022/03/04 10:47:49;;;;;;;27.50;17.83;;;4.50;99.90;;;;;;5051992;28;20179;-70
2022/03/04 10:50:16;;;;;;;30.63;18.65;;;4.40;99.90;;;;;;5051905;28;20045;-72
2022/03/04 10:53:12;;;;;;;28.02;18.08;;;4.60;99.90;;;;;;5052060;28;20092;-71
2022/03/04 10:55:48;;;;;;;27.38;19.05;;;4.60;99.90;;;;;;5018776;28;20385;-71
2022/03/04 10:58:27;;;;;;;28.10;18.70;;;4.70;99.90;;;;;;5051692;28;20059;-71
2022/03/04 11:00:58;;;;;;;25.00;16.60;;;4.90;99.90;;;;;;5051799;28;20056;-72
2022/03/04 11:03:25;;;;;;;;;;;5.00;99.90;;;;;;5052169;28;20053;-72
2022/03/04 11:05:53;;;;;;;27.00;17.45;;;4.90;99.90;;;;;;5035284;28;19982;-71
2022/03/04 11:08:22;;;;;;;23.75;15.32;;;5.30;99.90;;;;;;5051677;28;20088;-72
2022/03/04 11:10:49;;;;;;;22.70;15.93;;;5.00;99.90;;;;;;5035577;28;20060;-72
2022/03/04 11:13:15;;;;;;;22.05;14.70;;;5.10;99.90;;;;;;5051606;28;20040;-73
2022/03/04 11:15:42;;;;;;;25.13;15.43;;;5.20;99.90;;;;;;5034885;28;20420;-72
2022/03/04 11:18:11;;;;;;;23.73;14.65;;;5.50;99.90;;;;;;5051671;28;20144;-72
2022/03/04 11:20:38;;;;;;;21.95;13.82;;;5.50;99.90;;;;;;5051803;28;20084;-72
2022/03/04 11:23:05;;;;;;;19.83;14.20;;;5.60;99.90;;;;;;5034739;28;20076;-72
2022/03/04 11:25:39;;;;;;;22.40;15.50;;;5.70;99.90;;;;;;5051300;28;20049;-73
2022/03/04 11:28:13;;;;;;;21.25;14.63;;;;;;;;;;5051321;28;20052;-73
2022/03/04 11:30:42;;;;;;;19.35;13.52;;;6.20;99.90;;;;;;5051192;28;20136;-71
2022/03/04 11:33:18;;;;;;;21.17;14.13;;;6.30;99.90;;;;;;5034883;28;20256;-72
2022/03/04 11:35:49;;;;;;;20.88;13.15;;;;;;;;;;5034570;28;20043;-72
2022/03/04 11:38:16;;;;;;;19.88;13.57;;;6.30;99.90;;;;;;5051182;28;20115;-73
2022/03/04 11:40:51;;;;;;;19.58;13.57;;;6.70;99.90;;;;;;5034456;28;20045;-73
2022/03/04 11:43:18;;;;;;;20.55;13.23;;;7.30;99.90;;;;;;5050981;28;20041;-73
2022/03/04 11:45:44;;;;;;;21.75;13.80;;;7.40;99.90;;;;;;5034479;28;20149;-73
2022/03/04 11:48:13;;;;;;;19.48;12.45;;;8.10;99.90;;;;;;5051099;28;20045;-73
2022/03/04 11:50:45;;;;;;;20.17;13.43;;;7.40;99.90;;;;;;5034215;28;20127;-72
2022/03/04 11:53:12;;;;;;;19.88;12.70;;;;;;;;;;5051247;28;20080;-73
2022/03/04 11:55:38;;;;;;;19.23;12.35;;;7.60;99.90;;;;;;5051292;28;20400;-73
2022/03/04 11:58:05;;;;;;;18.50;12.88;;;7.70;99.90;;;;;;5034543;28;20047;-73
2022/03/04 12:00:33;;;;;;;17.35;12.00;;;7.60;99.90;;;;;;5034153;28;20044;-73
2022/03/04 12:03:10;;;;;;;17.50;11.85;;;8.10;99.90;;;;;;5034416;28;20389;-73
2022/03/04 12:05:38;;;;;;;17.83;12.20;;;;;;;;;;5034154;28;20129;-73
2022/03/04 12:08:03;;;;;;;17.30;12.55;;;8.20;99.90;;;;;;5034083;28;20045;-73
2022/03/04 12:10:36;;;;;;;18.35;11.93;;;8.30;99.90;;;;;;5050911;28;20471;-73
2022/03/04 12:13:11;;;;;;;17.75;12.77;;;8.50;99.90;;;;;;5050618;28;20040;-72
2022/03/04 12:15:49;;;;;;;16.05;11.75;;;9.20;99.90;;;;;;5033904;28;20128;-74
2022/03/04 12:18:17;;;;;;;18.92;12.32;;;9.10;99.90;;;;;;5050583;28;20120;-73
2022/03/04 12:20:42;;;;;;;16.13;11.27;;;8.90;99.90;;;;;;5050479;28;20110;-73
2022/03/04 12:23:19;;;;;;;15.05;11.13;;;;;;;;;;5050219;28;20052;-74
2022/03/04 12:25:54;;;;;;;15.98;10.43;;;;;;;;;;5034160;28;20118;-74
2022/03/04 12:28:22;;;;;;;13.95;10.60;;;;;;;;;;5050305;28;20041;-74
2022/03/04 12:31:03;;;;;;;13.30;9.82;;;9.70;99.90;;;;;;5049659;28;20069;-73
2022/03/04 12:33:30;;;;;;;11.98;9.68;;;10.00;99.90;;;;;;5033729;28;20114;-73
2022/03/04 12:35:59;;;;;;;14.93;10.00;;;10.50;99.90;;;;;;5033608;28;20036;-73
2022/03/04 12:38:29;;;;;;;13.80;10.30;;;10.40;99.90;;;;;;5017503;28;20036;-73
2022/03/04 12:40:58;;;;;;;12.23;9.20;;;10.20;99.90;;;;;;5033735;28;20043;-73
2022/03/04 12:43:25;;;;;;;15.07;9.82;;;10.50;99.90;;;;;;5050405;28;20291;-73
2022/03/04 12:45:52;;;;;;;14.02;10.30;;;10.70;99.90;;;;;;5033689;28;20147;-73
2022/03/04 12:48:24;;;;;;;13.70;9.82;;;10.50;99.90;;;;;;5050696;28;20044;-74